createdAt,value
2022-12-01T00:00:20.295Z,-0.09
2022-12-01T00:03:23.100Z,-0.06
2022-12-01T00:06:25.556Z,-0.13
2022-12-01T00:09:46.393Z,-0.07
2022-12-01T00:12:48.979Z,-0.14
2022-12-01T00:15:51.379Z,-0.05
2022-12-01T00:18:53.847Z,-0.02
2022-12-01T00:21:56.400Z,-0.12
2022-12-01T00:24:58.805Z,0.05
2022-12-01T00:28:01.202Z,0.13
2022-12-01T00:31:08.149Z,0.07
2022-12-01T00:34:24.952Z,0.15
2022-12-01T00:37:29.828Z,0.20
2022-12-01T00:40:32.304Z,0.30
2022-12-01T00:43:34.955Z,0.18
2022-12-01T00:46:37.471Z,0.12
2022-12-01T00:49:40.195Z,0.15
2022-12-01T00:52:42.697Z,0.03
2022-12-01T00:55:45.205Z,0.10
2022-12-01T00:58:47.936Z,0.06
2022-12-01T01:01:50.442Z,0.18
2022-12-01T01:04:53.586Z,0.13
2022-12-01T01:07:56.009Z,0.15
2022-12-01T01:11:00.187Z,0.10
2022-12-01T01:14:03.045Z,0.20
2022-12-01T01:17:05.898Z,0.15
2022-12-01T01:20:09.124Z,0.08
2022-12-01T01:23:11.595Z,0.07
2022-12-01T01:26:17.153Z,0.01
2022-12-01T01:29:20.091Z,-0.09
2022-12-01T01:32:22.474Z,0.05
2022-12-01T01:35:24.924Z,0.10
2022-12-01T01:38:28.477Z,0.06
2022-12-01T01:41:30.953Z,0.01
2022-12-01T01:44:56.310Z,0.16
2022-12-01T01:47:59.902Z,0.17
2022-12-01T01:51:02.584Z,0.09
2022-12-01T01:54:08.646Z,0.25
2022-12-01T01:57:12.472Z,0.32
2022-12-01T02:00:18.193Z,0.33
2022-12-01T02:03:20.919Z,0.34
2022-12-01T02:06:24.636Z,0.24
2022-12-01T02:09:27.672Z,0.33
2022-12-01T02:13:15.996Z,0.31
2022-12-01T02:16:35.935Z,0.18
2022-12-01T02:20:02.649Z,0.02
2022-12-01T02:23:26.589Z,0.08
2022-12-01T02:26:39.764Z,0.12
2022-12-01T02:30:00.671Z,0.28
2022-12-01T02:33:24.225Z,0.31
2022-12-01T02:36:37.459Z,0.24
2022-12-01T02:40:02.063Z,0.16
2022-12-01T02:43:08.080Z,0.17
2022-12-01T02:46:32.549Z,0.15
2022-12-01T02:49:37.497Z,0.13
2022-12-01T02:52:40.588Z,0.11
2022-12-01T02:55:52.021Z,0.30
2022-12-01T02:58:54.579Z,0.21
2022-12-01T03:02:00.210Z,0.40
2022-12-01T03:05:05.637Z,0.39
2022-12-01T03:08:19.587Z,0.21
2022-12-01T03:11:28.924Z,-0.07
2022-12-01T03:14:51.085Z,-0.35
2022-12-01T03:17:59.374Z,-0.56
2022-12-01T03:21:09.761Z,-0.78
2022-12-01T03:24:17.581Z,-1.10
2022-12-01T03:27:23.091Z,-1.38
2022-12-01T03:30:26.199Z,-1.54
2022-12-01T03:33:35.953Z,-1.08
2022-12-01T03:36:48.406Z,-1.24
2022-12-01T03:39:55.868Z,-1.39
2022-12-01T03:43:03.951Z,-1.43
2022-12-01T03:46:41.168Z,-1.37
2022-12-01T03:49:45.272Z,-1.09
2022-12-01T03:52:58.583Z,-1.38
2022-12-01T03:56:03.555Z,-1.38
2022-12-01T03:59:07.558Z,-1.54
2022-12-01T04:02:10.125Z,-1.68
2022-12-01T04:05:12.875Z,-1.72
2022-12-01T04:08:15.290Z,-1.60
2022-12-01T04:11:36.136Z,-1.23
2022-12-01T04:14:38.626Z,-0.98
2022-12-01T04:17:45.115Z,-0.94
2022-12-01T04:20:50.651Z,-0.76
2022-12-01T04:24:02.074Z,-0.67
2022-12-01T04:27:04.497Z,-0.70
2022-12-01T04:30:08.041Z,-0.62
2022-12-01T04:33:10.425Z,-0.59
2022-12-01T04:36:12.808Z,-0.65
2022-12-01T04:39:15.294Z,-0.67
2022-12-01T04:42:17.720Z,-0.73
2022-12-01T04:45:20.127Z,-0.33
2022-12-01T04:48:22.574Z,-0.29
2022-12-01T04:51:25.002Z,-0.07
2022-12-01T04:54:27.541Z,-0.04
2022-12-01T04:57:29.960Z,-0.19
2022-12-01T05:00:33.511Z,-0.16
2022-12-01T05:03:38.218Z,-0.40
2022-12-01T05:06:41.187Z,-0.25
2022-12-01T05:09:43.699Z,-0.16
2022-12-01T05:12:46.405Z,-0.02
2022-12-01T05:15:49.046Z,-0.04
2022-12-01T05:19:16.557Z,0.18
2022-12-01T05:22:31.486Z,0.13
2022-12-01T05:25:42.502Z,-0.04
2022-12-01T05:28:44.937Z,0.05
2022-12-01T05:31:47.541Z,-0.03
2022-12-01T05:34:50.123Z,-0.03
2022-12-01T05:37:52.594Z,-0.15
2022-12-01T05:40:56.046Z,-0.23
2022-12-01T05:43:58.525Z,-0.40
2022-12-01T05:47:00.982Z,-0.55
2022-12-01T05:50:05.903Z,-0.60
2022-12-01T05:53:11.299Z,-0.75
2022-12-01T05:56:13.793Z,-0.90
2022-12-01T05:59:16.274Z,-1.21
2022-12-01T06:02:18.933Z,-1.28
2022-12-01T06:05:21.444Z,-1.28
2022-12-01T06:08:24.025Z,-1.37
2022-12-01T06:11:26.471Z,-1.47
2022-12-01T06:14:28.951Z,-1.24
2022-12-01T06:17:34.584Z,-1.47
2022-12-01T06:20:39.426Z,-1.29
2022-12-01T06:23:41.918Z,-1.44
2022-12-01T06:26:44.271Z,-1.50
2022-12-01T06:29:46.711Z,-1.53
2022-12-01T06:32:49.184Z,-1.10
2022-12-01T06:35:59.184Z,-0.95
2022-12-01T06:39:01.575Z,-1.17
2022-12-01T06:42:04.052Z,-1.27
2022-12-01T06:45:06.898Z,-1.24
2022-12-01T06:48:09.523Z,-0.86
2022-12-01T06:51:11.942Z,-0.72
2022-12-01T06:54:15.249Z,-0.74
2022-12-01T06:57:17.633Z,-0.63
2022-12-01T07:00:20.601Z,-0.50
2022-12-01T07:03:23.145Z,-0.48
2022-12-01T07:06:25.704Z,-0.33
2022-12-01T07:09:28.136Z,-0.18
2022-12-01T07:12:31.828Z,-0.17
2022-12-01T07:15:34.227Z,-0.12
2022-12-01T07:18:37.418Z,-0.05
2022-12-01T07:21:46.467Z,0.26
2022-12-01T07:24:48.900Z,0.39
2022-12-01T07:27:51.384Z,0.48
2022-12-01T07:30:53.775Z,0.67
2022-12-01T07:33:57.501Z,0.79
2022-12-01T07:36:59.905Z,0.76
2022-12-01T07:40:02.456Z,0.96
2022-12-01T07:43:05.114Z,1.06
2022-12-01T07:46:22.813Z,1.37
2022-12-01T07:49:26.349Z,1.45
2022-12-01T07:52:28.910Z,1.51
2022-12-01T07:55:31.312Z,1.73
2022-12-01T07:58:34.096Z,1.78
2022-12-01T08:01:39.257Z,2.00
2022-12-01T08:04:45.458Z,2.13
2022-12-01T08:07:48.037Z,2.41
2022-12-01T08:10:50.755Z,2.56
2022-12-01T08:13:53.508Z,2.58
2022-12-01T08:16:55.916Z,2.69
2022-12-01T08:19:58.717Z,2.88
2022-12-01T08:23:01.795Z,2.92
2022-12-01T08:26:06.667Z,3.06
2022-12-01T08:29:09.324Z,3.17
2022-12-01T08:32:11.916Z,3.10
2022-12-01T08:35:15.385Z,3.17
2022-12-01T08:38:18.164Z,3.39
2022-12-01T08:41:21.652Z,3.43
2022-12-01T08:44:24.088Z,3.61
2022-12-01T08:47:28.902Z,3.55
2022-12-01T08:50:31.583Z,3.85
2022-12-01T08:53:35.511Z,4.01
2022-12-01T08:56:43.317Z,3.92
2022-12-01T08:59:45.832Z,4.05
2022-12-01T09:02:49.471Z,4.05
2022-12-01T09:05:51.960Z,4.08
2022-12-01T09:08:54.363Z,4.18
2022-12-01T09:11:57.261Z,4.37
2022-12-01T09:15:02.193Z,4.34
2022-12-01T09:18:04.936Z,4.35
2022-12-01T09:21:24.028Z,4.47
2022-12-01T09:24:27.384Z,4.61
2022-12-01T09:27:29.800Z,4.77
2022-12-01T09:30:32.283Z,4.56
2022-12-01T09:33:35.000Z,4.96
2022-12-01T09:36:38.155Z,4.98
2022-12-01T09:39:40.601Z,5.24
2022-12-01T09:42:44.611Z,5.27
2022-12-01T09:45:50.625Z,5.29
2022-12-01T09:48:54.341Z,5.35
2022-12-01T09:51:56.745Z,5.31
2022-12-01T09:55:00.408Z,5.39
2022-12-01T09:58:04.496Z,5.31
2022-12-01T10:01:15.692Z,5.64
2022-12-01T10:04:31.095Z,5.70
2022-12-01T10:07:40.319Z,5.62
2022-12-01T10:10:46.432Z,5.66
2022-12-01T10:13:48.908Z,5.65
2022-12-01T10:17:03.971Z,5.73
2022-12-01T10:20:13.357Z,5.65
2022-12-01T10:23:43.844Z,5.62
2022-12-01T10:26:52.328Z,5.50
2022-12-01T10:29:58.907Z,5.64
2022-12-01T10:33:24.274Z,5.38
2022-12-01T10:36:27.668Z,5.31
2022-12-01T10:39:40.250Z,5.35
2022-12-01T10:42:48.316Z,5.33
2022-12-01T10:45:51.111Z,5.33
2022-12-01T10:48:58.918Z,5.52
2022-12-01T10:52:01.891Z,5.66
2022-12-01T10:55:26.493Z,5.78
2022-12-01T10:58:31.924Z,6.02
2022-12-01T11:01:35.933Z,6.25
2022-12-01T11:04:56.236Z,6.33
2022-12-01T11:07:59.122Z,6.35
2022-12-01T11:11:01.840Z,6.34
2022-12-01T11:14:17.980Z,6.38
2022-12-01T11:17:26.282Z,6.33
2022-12-01T11:20:39.688Z,6.17
2022-12-01T11:23:50.665Z,6.11
2022-12-01T11:26:53.370Z,6.28
2022-12-01T11:29:58.292Z,6.54
2022-12-01T11:33:02.991Z,6.75
2022-12-01T11:36:11.838Z,6.85
2022-12-01T11:39:44.443Z,6.65
2022-12-01T11:42:55.814Z,6.58
2022-12-01T11:46:00.772Z,6.61
2022-12-01T11:49:04.055Z,6.42
2022-12-01T11:52:28.099Z,6.25
2022-12-01T11:55:31.696Z,6.31
2022-12-01T11:58:34.149Z,6.08
2022-12-01T12:01:49.458Z,6.00
2022-12-01T12:05:03.343Z,6.11
2022-12-01T12:08:18.102Z,6.18
2022-12-01T12:11:49.674Z,6.12
2022-12-01T12:15:29.835Z,6.10
2022-12-01T12:19:07.905Z,5.98
2022-12-01T12:22:19.335Z,6.01
2022-12-01T12:25:30.957Z,6.02
2022-12-01T12:29:13.950Z,6.15
2022-12-01T12:32:28.502Z,6.11
2022-12-01T12:36:02.414Z,6.36
2022-12-01T12:39:24.493Z,6.53
2022-12-01T12:42:53.055Z,6.86
2022-12-01T12:46:07.809Z,7.06
2022-12-01T12:49:20.709Z,7.66
2022-12-01T12:52:26.857Z,7.74
2022-12-01T12:56:05.516Z,8.21
2022-12-01T12:59:12.057Z,7.67
2022-12-01T13:02:20.653Z,7.97
2022-12-01T13:05:36.266Z,8.04
2022-12-01T13:08:44.371Z,7.71
2022-12-01T13:12:22.217Z,7.77
2022-12-01T13:15:25.195Z,7.37
2022-12-01T13:18:44.023Z,7.58
2022-12-01T13:21:48.893Z,7.66
2022-12-01T13:24:52.312Z,7.61
2022-12-01T13:27:55.591Z,7.12
2022-12-01T13:31:00.352Z,6.65
2022-12-01T13:34:05.421Z,6.70
2022-12-01T13:37:09.227Z,6.57
2022-12-01T13:40:25.199Z,7.33
2022-12-01T13:43:27.619Z,7.79
2022-12-01T13:46:51.334Z,8.09
2022-12-01T13:49:53.976Z,8.21
2022-12-01T13:53:12.561Z,7.76
2022-12-01T13:56:17.939Z,7.94
2022-12-01T14:00:02.845Z,7.61
2022-12-01T14:03:17.637Z,7.28
2022-12-01T14:06:41.066Z,7.44
2022-12-01T14:09:44.239Z,6.69
2022-12-01T14:12:46.900Z,6.34
2022-12-01T14:15:57.299Z,6.01
2022-12-01T14:18:59.738Z,5.62
2022-12-01T14:22:04.448Z,5.27
2022-12-01T14:25:22.652Z,4.89
2022-12-01T14:29:10.889Z,4.63
2022-12-01T14:32:16.301Z,4.35
2022-12-01T14:35:18.906Z,4.30
2022-12-01T14:38:22.189Z,3.96
2022-12-01T14:41:30.771Z,3.81
2022-12-01T14:44:33.239Z,3.82
2022-12-01T14:47:42.645Z,3.73
2022-12-01T14:50:51.476Z,3.63
2022-12-01T14:53:55.047Z,3.52
2022-12-01T14:57:04.459Z,3.36
2022-12-01T15:00:19.656Z,3.45
2022-12-01T15:03:25.386Z,3.42
2022-12-01T15:06:31.751Z,3.26
2022-12-01T15:09:35.151Z,3.20
2022-12-01T15:12:38.063Z,3.12
2022-12-01T15:15:53.735Z,3.12
2022-12-01T15:18:58.611Z,3.11
2022-12-01T15:22:05.753Z,2.97
2022-12-01T15:25:13.852Z,2.93
2022-12-01T15:28:19.706Z,2.99
2022-12-01T15:31:22.143Z,2.83
2022-12-01T15:34:39.414Z,2.90
2022-12-01T15:37:45.269Z,2.95
2022-12-01T15:44:20.849Z,2.81
2022-12-01T15:47:37.807Z,2.88
2022-12-01T15:50:46.138Z,2.85
2022-12-01T15:53:54.749Z,2.70
2022-12-01T15:56:59.100Z,2.72
2022-12-01T16:00:01.645Z,2.70
2022-12-01T16:03:04.311Z,2.65
2022-12-01T16:06:11.697Z,2.71
2022-12-01T16:09:26.253Z,2.73
2022-12-01T16:12:33.045Z,2.62
2022-12-01T16:15:42.862Z,2.57
2022-12-01T16:18:53.230Z,2.49
2022-12-01T16:22:04.730Z,2.53
2022-12-01T16:25:38.382Z,2.89
2022-12-01T16:28:40.823Z,2.73
2022-12-01T16:32:05.130Z,2.67
2022-12-01T16:35:07.625Z,2.67
2022-12-01T16:38:25.104Z,2.64
2022-12-01T16:41:37.695Z,2.61
2022-12-01T16:44:41.867Z,2.36
2022-12-01T16:47:46.191Z,2.21
2022-12-01T16:50:49.891Z,2.09
2022-12-01T16:53:52.725Z,2.06
2022-12-01T16:56:55.381Z,1.94
2022-12-01T16:59:57.913Z,1.77
2022-12-01T17:03:00.836Z,1.95
2022-12-01T17:06:04.068Z,1.91
2022-12-01T17:09:06.510Z,1.75
2022-12-01T17:12:08.959Z,1.63
2022-12-01T17:15:12.099Z,1.58
2022-12-01T17:18:16.435Z,1.73
2022-12-01T17:21:18.950Z,1.74
2022-12-01T17:24:21.413Z,1.84
2022-12-01T17:27:25.215Z,1.48
2022-12-01T17:30:27.853Z,1.53
2022-12-01T17:33:30.621Z,1.52
2022-12-01T17:36:33.146Z,1.57
2022-12-01T17:39:37.076Z,1.51
2022-12-01T17:42:39.669Z,1.26
2022-12-01T17:45:43.043Z,1.15
2022-12-01T17:48:46.494Z,1.13
2022-12-01T17:51:49.197Z,0.89
2022-12-01T17:54:51.923Z,0.86
2022-12-01T17:57:54.842Z,0.95
2022-12-01T18:00:57.253Z,0.92
2022-12-01T18:03:59.738Z,1.15
2022-12-01T18:07:02.155Z,1.21
2022-12-01T18:10:05.269Z,1.27
2022-12-01T18:13:07.983Z,1.14
2022-12-01T18:16:19.661Z,1.03
2022-12-01T18:19:22.233Z,1.00
2022-12-01T18:22:24.610Z,1.02
2022-12-01T18:25:27.308Z,1.15
2022-12-01T18:28:29.925Z,1.00
2022-12-01T18:31:33.203Z,1.10
2022-12-01T18:34:35.765Z,1.01
2022-12-01T18:37:40.380Z,0.81
2022-12-01T18:40:43.230Z,0.78
2022-12-01T18:43:45.881Z,0.71
2022-12-01T18:46:48.624Z,0.41
2022-12-01T18:49:51.364Z,0.29
2022-12-01T18:52:53.788Z,0.39
2022-12-01T18:55:57.026Z,0.39
2022-12-01T18:59:01.951Z,0.04
2022-12-01T19:02:04.764Z,0.10
2022-12-01T19:05:07.697Z,0.09
2022-12-01T19:08:10.588Z,0.19
2022-12-01T19:11:13.753Z,0.15
2022-12-01T19:14:18.167Z,0.01
2022-12-01T19:17:21.875Z,-0.13
2022-12-01T19:20:24.602Z,-0.18
2022-12-01T19:23:27.674Z,0.20
2022-12-01T19:26:30.377Z,0.43
2022-12-01T19:29:33.081Z,0.43
2022-12-01T19:32:36.485Z,0.37
2022-12-01T19:35:39.104Z,0.29
2022-12-01T19:38:41.892Z,0.29
2022-12-01T19:41:44.688Z,-0.06
2022-12-01T19:44:47.639Z,-0.05
2022-12-01T19:47:51.575Z,0.06
2022-12-01T19:50:54.405Z,0.08
2022-12-01T19:53:57.534Z,0.05
2022-12-01T19:57:00.005Z,0.11
2022-12-01T20:00:02.952Z,0.10
2022-12-01T20:03:14.660Z,0.14
2022-12-01T20:06:22.514Z,0.20
2022-12-01T20:09:25.804Z,0.06
2022-12-01T20:12:28.607Z,0.06
2022-12-01T20:15:32.780Z,0.15
2022-12-01T20:18:36.299Z,0.27
2022-12-01T20:21:42.534Z,0.24
2022-12-01T20:24:45.363Z,0.20
2022-12-01T20:27:47.757Z,0.28
2022-12-01T20:30:50.260Z,0.28
2022-12-01T20:33:56.189Z,0.21
2022-12-01T20:36:59.267Z,0.23
2022-12-01T20:40:02.084Z,0.18
2022-12-01T20:43:04.924Z,0.18
2022-12-01T20:46:07.836Z,0.16
2022-12-01T20:49:11.241Z,0.29
2022-12-01T20:52:13.947Z,0.45
2022-12-01T20:55:16.857Z,0.43
2022-12-01T20:58:19.657Z,0.43
2022-12-01T21:01:22.795Z,0.52
2022-12-01T21:04:25.399Z,0.50
2022-12-01T21:07:27.865Z,0.64
2022-12-01T21:10:30.348Z,0.55
2022-12-01T21:13:39.552Z,0.73
2022-12-01T21:16:48.117Z,0.63
2022-12-01T21:20:07.082Z,0.59
2022-12-01T21:23:15.072Z,0.51
2022-12-01T21:26:18.991Z,0.48
2022-12-01T21:29:27.867Z,0.34
2022-12-01T21:32:32.245Z,0.23
2022-12-01T21:35:34.758Z,-0.04
2022-12-01T21:38:37.455Z,-0.01
2022-12-01T21:41:40.784Z,0.04
2022-12-01T21:44:43.356Z,0.29
2022-12-01T21:47:45.805Z,0.15
2022-12-01T21:50:53.791Z,0.38
2022-12-01T21:53:56.759Z,0.35
2022-12-01T21:56:59.199Z,0.52
2022-12-01T22:00:33.699Z,0.66
2022-12-01T22:03:40.089Z,0.60
2022-12-01T22:06:45.435Z,0.43
2022-12-01T22:09:54.614Z,0.41
2022-12-01T22:12:57.032Z,0.50
2022-12-01T22:15:59.577Z,0.68
2022-12-01T22:19:20.240Z,0.55
2022-12-01T22:22:25.159Z,0.16
2022-12-01T22:25:28.458Z,0.25
2022-12-01T22:28:31.219Z,0.27
2022-12-01T22:31:34.202Z,0.23
2022-12-01T22:34:36.822Z,0.09
2022-12-01T22:37:50.181Z,0.29
2022-12-01T22:41:14.462Z,0.26
2022-12-01T22:44:17.280Z,0.01
2022-12-01T22:47:19.734Z,0.04
2022-12-01T22:50:30.568Z,0.08
2022-12-01T22:53:32.915Z,0.00
2022-12-01T22:56:50.065Z,-0.05
2022-12-01T22:59:53.221Z,-0.02
2022-12-01T23:02:55.907Z,-0.12
2022-12-01T23:05:58.548Z,-0.19
2022-12-01T23:09:01.820Z,-0.26
2022-12-01T23:12:10.104Z,-0.29
2022-12-01T23:15:35.361Z,-0.29
2022-12-01T23:18:37.906Z,-0.33
2022-12-01T23:21:40.768Z,-0.27
2022-12-01T23:24:43.673Z,-0.16
2022-12-01T23:27:48.733Z,-0.20
2022-12-01T23:30:54.459Z,-0.41
2022-12-01T23:33:56.913Z,-0.44
2022-12-01T23:36:59.360Z,-0.44
2022-12-01T23:40:03.093Z,-0.36
2022-12-01T23:43:17.826Z,-0.40
2022-12-01T23:46:25.329Z,-0.48
2022-12-01T23:49:30.221Z,-0.55
2022-12-01T23:52:35.482Z,-0.40
2022-12-01T23:55:37.898Z,-0.38
2022-12-01T23:58:40.781Z,-0.42
